createdAt,value
2023-01-01T00:02:01.119Z,9.00
2023-01-01T00:07:04.609Z,9.00
2023-01-01T00:12:08.205Z,9.20
2023-01-01T00:17:13.983Z,9.50
2023-01-01T00:22:52.926Z,9.90
2023-01-01T00:27:40.855Z,10.40
2023-01-01T00:32:54.572Z,11.00
2023-01-01T00:37:59.451Z,11.00
2023-01-01T00:43:02.668Z,11.00
2023-01-01T00:48:07.769Z,10.80
2023-01-01T00:53:11.040Z,11.20
2023-01-01T00:58:14.329Z,11.40
2023-01-01T01:03:29.093Z,11.40
2023-01-01T01:08:34.741Z,11.30
2023-01-01T01:13:38.878Z,11.20
2023-01-01T01:18:43.999Z,11.10
2023-01-01T01:23:47.374Z,11.20
2023-01-01T01:28:51.056Z,11.40
2023-01-01T01:33:55.726Z,11.50
2023-01-01T01:38:59.568Z,11.40
2023-01-01T01:44:05.939Z,11.50
2023-01-01T01:49:18.826Z,11.50
2023-01-01T01:54:25.615Z,11.50
2023-01-01T01:59:33.629Z,11.40
2023-01-01T02:04:38.182Z,11.50
2023-01-01T02:09:41.560Z,11.70
2023-01-01T02:14:44.835Z,11.70
2023-01-01T02:20:06.164Z,11.50
2023-01-01T02:25:25.849Z,11.40
2023-01-01T02:30:32.688Z,11.30
2023-01-01T02:35:40.549Z,11.30
2023-01-01T02:40:49.915Z,11.20
2023-01-01T02:45:55.078Z,11.20
2023-01-01T02:51:07.917Z,11.00
2023-01-01T02:56:18.057Z,10.80
2023-01-01T03:01:28.128Z,10.40
2023-01-01T03:06:40.822Z,10.10
2023-01-01T03:11:50.493Z,9.70
2023-01-01T03:17:00.673Z,9.10
2023-01-01T03:22:07.208Z,9.10
2023-01-01T03:27:17.147Z,9.30
2023-01-01T03:32:47.677Z,9.20
2023-01-01T03:37:54.888Z,8.90
2023-01-01T03:43:04.521Z,8.90
2023-01-01T03:48:09.971Z,9.30
2023-01-01T03:53:25.216Z,9.70
2023-01-01T03:58:35.619Z,9.80
2023-01-01T04:03:41.725Z,9.70
2023-01-01T04:08:44.996Z,9.60
2023-01-01T04:13:48.965Z,9.40
2023-01-01T04:18:53.930Z,9.00
2023-01-01T04:23:57.188Z,8.80
2023-01-01T04:29:00.461Z,8.60
2023-01-01T04:34:05.585Z,8.50
2023-01-01T04:39:10.441Z,8.60
2023-01-01T04:44:13.961Z,8.60
2023-01-01T04:49:18.638Z,8.70
2023-01-01T04:54:21.906Z,8.70
2023-01-01T04:59:25.195Z,8.70
2023-01-01T05:04:29.758Z,8.70
2023-01-01T05:09:33.216Z,8.80
2023-01-01T05:14:36.554Z,8.70
2023-01-01T05:19:44.712Z,8.50
2023-01-01T05:24:47.873Z,8.50
2023-01-01T05:29:51.065Z,8.60
2023-01-01T05:34:56.377Z,8.70
2023-01-01T05:39:59.686Z,8.80
2023-01-01T05:45:02.939Z,8.80
2023-01-01T05:55:11.758Z,8.90
2023-01-01T06:00:16.176Z,9.00
2023-01-01T06:05:20.792Z,9.20
2023-01-01T06:10:24.087Z,9.00
2023-01-01T06:15:27.687Z,9.10
2023-01-01T06:20:32.250Z,9.20
2023-01-01T06:25:36.419Z,9.50
2023-01-01T06:30:39.991Z,9.40
2023-01-01T06:35:44.836Z,9.20
2023-01-01T06:40:57.229Z,8.80
2023-01-01T06:46:02.057Z,8.70
2023-01-01T06:51:11.926Z,8.60
2023-01-01T06:56:15.293Z,8.60
2023-01-01T07:01:21.035Z,8.70
2023-01-01T07:06:26.530Z,8.60
2023-01-01T07:11:30.705Z,8.80
2023-01-01T07:16:34.079Z,8.80
2023-01-01T07:21:43.518Z,8.90
2023-01-01T07:26:47.646Z,8.70
2023-01-01T07:31:51.018Z,8.60
2023-01-01T07:36:56.664Z,8.60
2023-01-01T07:41:59.863Z,8.50
2023-01-01T07:47:04.244Z,8.60
2023-01-01T07:52:09.997Z,8.80
2023-01-01T07:57:13.389Z,9.00
2023-01-01T08:02:16.739Z,9.00
2023-01-01T08:07:21.803Z,9.10
2023-01-01T08:12:26.559Z,9.10
2023-01-01T08:17:29.980Z,9.20
2023-01-01T08:22:34.798Z,9.30
2023-01-01T08:27:38.303Z,9.50
2023-01-01T08:32:41.678Z,9.80
2023-01-01T08:37:46.380Z,9.80
2023-01-01T08:42:49.744Z,9.70
2023-01-01T08:47:52.989Z,9.50
2023-01-01T08:52:59.280Z,9.30
2023-01-01T08:58:02.779Z,9.20
2023-01-01T09:03:06.155Z,9.30
2023-01-01T09:08:11.080Z,9.70
2023-01-01T09:13:19.168Z,9.90
2023-01-01T09:18:22.404Z,10.00
2023-01-01T09:23:27.211Z,10.20
2023-01-01T09:28:30.888Z,10.50
2023-01-01T09:33:34.797Z,10.60
2023-01-01T09:38:39.496Z,10.70
2023-01-01T09:43:47.687Z,10.90
2023-01-01T09:48:56.525Z,11.00
2023-01-01T09:54:07.843Z,11.20
2023-01-01T09:59:12.072Z,11.40
2023-01-01T10:04:30.215Z,11.50
2023-01-01T10:09:43.593Z,11.60
2023-01-01T10:14:50.378Z,11.60
2023-01-01T10:19:57.755Z,11.70
2023-01-01T10:25:07.402Z,11.80
2023-01-01T10:30:16.535Z,12.00
2023-01-01T10:35:28.373Z,12.20
2023-01-01T10:40:35.577Z,12.30
2023-01-01T10:45:41.562Z,12.50
2023-01-01T10:50:51.859Z,12.70
2023-01-01T10:56:09.185Z,12.90
2023-01-01T11:01:14.330Z,13.10
2023-01-01T11:06:22.952Z,13.20
2023-01-01T11:11:32.796Z,13.40
2023-01-01T11:16:41.013Z,13.60
2023-01-01T11:21:48.817Z,13.70
2023-01-01T11:26:55.457Z,14.00
2023-01-01T11:32:00.984Z,14.20
2023-01-01T11:37:21.977Z,14.40
2023-01-01T11:42:28.724Z,14.80
2023-01-01T11:47:35.964Z,15.10
2023-01-01T11:52:42.209Z,15.50
2023-01-01T11:57:53.840Z,15.70
2023-01-01T12:03:01.921Z,15.70
2023-01-01T12:08:07.792Z,15.80
2023-01-01T12:13:19.111Z,16.00
2023-01-01T12:18:28.186Z,16.10
2023-01-01T12:23:32.941Z,16.30
2023-01-01T12:28:44.982Z,16.30
2023-01-01T12:34:01.166Z,16.40
2023-01-01T12:39:39.570Z,16.40
2023-01-01T12:44:51.853Z,16.60
2023-01-01T12:50:08.695Z,16.50
2023-01-01T12:55:41.734Z,16.40
2023-01-01T13:00:54.976Z,16.40
2023-01-01T13:06:00.110Z,16.50
2023-01-01T13:11:04.857Z,16.60
2023-01-01T13:16:12.101Z,16.70
2023-01-01T13:21:27.313Z,16.70
2023-01-01T13:26:41.399Z,16.70
2023-01-01T13:32:08.215Z,16.70
2023-01-01T13:37:34.337Z,16.80
2023-01-01T13:42:43.066Z,16.80
2023-01-01T13:48:06.368Z,16.70
2023-01-01T13:53:26.203Z,16.50
2023-01-01T13:59:05.701Z,16.30
2023-01-01T14:04:18.646Z,16.10
2023-01-01T14:09:22.953Z,16.00
2023-01-01T14:14:28.517Z,16.10
2023-01-01T14:19:34.006Z,16.10
2023-01-01T14:24:42.937Z,16.30
2023-01-01T14:29:50.600Z,16.40
2023-01-01T14:35:04.050Z,16.30
2023-01-01T14:40:18.599Z,16.10
2023-01-01T14:45:23.060Z,16.00
2023-01-01T14:50:31.302Z,15.70
2023-01-01T14:55:40.951Z,15.60
2023-01-01T15:00:44.883Z,15.30
2023-01-01T15:05:59.827Z,14.80
2023-01-01T15:11:09.082Z,14.30
2023-01-01T15:16:20.845Z,14.00
2023-01-01T15:21:38.312Z,13.50
2023-01-01T15:26:46.395Z,13.10
2023-01-01T15:31:51.453Z,12.70
2023-01-01T15:37:06.954Z,12.30
2023-01-01T15:42:24.860Z,12.10
2023-01-01T15:47:28.760Z,11.80
2023-01-01T15:52:33.576Z,11.60
2023-01-01T15:57:37.779Z,11.20
2023-01-01T16:02:43.631Z,11.00
2023-01-01T16:07:59.441Z,10.80
2023-01-01T16:13:02.741Z,10.60
2023-01-01T16:18:06.503Z,10.50
2023-01-01T16:23:12.343Z,10.30
2023-01-01T16:28:15.850Z,10.30
2023-01-01T16:33:21.669Z,10.40
2023-01-01T16:38:26.434Z,10.50
2023-01-01T16:43:29.777Z,10.60
2023-01-01T16:48:33.113Z,10.70
2023-01-01T16:53:38.093Z,10.60
2023-01-01T16:58:53.239Z,10.40
2023-01-01T17:04:04.624Z,10.30
2023-01-01T17:09:10.001Z,10.20
2023-01-01T17:14:13.842Z,10.20
2023-01-01T17:19:19.535Z,10.10
2023-01-01T17:24:24.353Z,9.90
2023-01-01T17:29:27.861Z,9.70
2023-01-01T17:34:31.104Z,9.30
2023-01-01T17:39:38.322Z,9.00
2023-01-01T17:44:41.709Z,9.10
2023-01-01T17:49:49.392Z,8.90
2023-01-01T17:54:56.119Z,8.70
2023-01-01T17:59:59.846Z,8.50
2023-01-01T18:05:02.967Z,8.30
2023-01-01T18:10:08.792Z,8.10
2023-01-01T18:15:12.505Z,7.90
2023-01-01T18:20:17.714Z,7.90
2023-01-01T18:25:29.052Z,8.00
2023-01-01T18:30:32.456Z,8.10
2023-01-01T18:35:35.913Z,8.00
2023-01-01T18:40:51.498Z,7.90
2023-01-01T18:45:55.961Z,7.70
2023-01-01T18:51:00.552Z,7.60
2023-01-01T18:56:15.728Z,7.50
2023-01-01T19:01:21.422Z,7.80
2023-01-01T19:06:28.751Z,8.00
2023-01-01T19:11:39.917Z,8.00
2023-01-01T19:16:43.175Z,8.20
2023-01-01T19:21:51.510Z,8.80
2023-01-01T19:27:03.111Z,9.00
2023-01-01T19:32:08.590Z,9.40
2023-01-01T19:37:12.886Z,9.40
2023-01-01T19:42:18.566Z,9.30
2023-01-01T19:47:21.758Z,9.20
2023-01-01T19:52:24.941Z,9.00
2023-01-01T19:57:29.686Z,8.50
2023-01-01T20:02:46.167Z,8.00
2023-01-01T20:07:50.670Z,7.60
2023-01-01T20:12:55.343Z,7.30
2023-01-01T20:17:59.659Z,7.10
2023-01-01T20:23:03.156Z,7.10
2023-01-01T20:28:26.341Z,7.50
2023-01-01T20:33:29.623Z,7.60
2023-01-01T20:38:36.930Z,7.70
2023-01-01T20:43:47.946Z,7.70
2023-01-01T20:48:51.337Z,7.50
2023-01-01T20:53:54.763Z,7.40
2023-01-01T20:59:17.681Z,7.30
2023-01-01T21:04:25.240Z,7.40
2023-01-01T21:09:28.620Z,7.30
2023-01-01T21:14:33.613Z,7.10
2023-01-01T21:19:37.304Z,7.00
2023-01-01T21:24:40.847Z,6.90
2023-01-01T21:29:48.228Z,7.30
2023-01-01T21:34:53.514Z,7.40
2023-01-01T21:39:58.824Z,7.10
2023-01-01T21:45:03.805Z,6.90
2023-01-01T21:50:22.965Z,6.60
2023-01-01T21:55:48.257Z,6.40
2023-01-01T22:00:52.940Z,6.30
2023-01-01T22:05:59.466Z,6.30
2023-01-01T22:11:03.042Z,6.20
2023-01-01T22:16:12.949Z,6.80
2023-01-01T22:21:19.180Z,6.90
2023-01-01T22:26:27.848Z,6.80
2023-01-01T22:31:36.554Z,6.70
2023-01-01T22:36:41.384Z,6.70
2023-01-01T22:41:46.184Z,6.70
2023-01-01T22:46:50.964Z,6.70
2023-01-01T22:51:56.351Z,6.70
2023-01-01T22:56:59.666Z,6.60
2023-01-01T23:02:04.821Z,6.70
2023-01-01T23:07:14.338Z,6.80
2023-01-01T23:12:17.762Z,6.90
2023-01-01T23:17:22.368Z,7.00
2023-01-01T23:22:28.082Z,7.00
2023-01-01T23:27:31.488Z,7.10
2023-01-01T23:32:36.923Z,7.10
2023-01-01T23:37:40.577Z,7.10
2023-01-01T23:42:43.872Z,7.20
2023-01-01T23:47:48.658Z,7.30
2023-01-01T23:52:51.855Z,7.40
2023-01-01T23:57:55.056Z,7.50
